Time;durP1;ratioP1;P1;durP2;ratioP2;P2;SDS_P1;SDS_P2;PMS_P1;PMS_P2;Temp;Humidity;BMP_temperature;BMP_pressure;BME280_temperature;BME280_humidity;BME280_pressure;Samples;Min_cycle;Max_cycle;Signal;HPM_P1;HPM_P2
2023/12/30 00:01:07;;;;;;;17.27;3.17;;;9.30;61.40;;;;;;5071279;28;20407;-72
2023/12/30 00:03:33;;;;;;;15.10;3.27;;;9.30;61.70;;;;;;5072590;28;20524;-73
2023/12/30 00:05:59;;;;;;;14.67;2.47;;;9.40;60.70;;;;;;5073129;28;20792;-71
2023/12/30 00:08:24;;;;;;;19.30;3.17;;;9.50;59.60;;;;;;5071293;28;20429;-70
2023/12/30 00:10:50;;;;;;;9.57;2.80;;;9.60;58.90;;;;;;5070902;28;20413;-72
2023/12/30 00:13:16;;;;;;;15.15;2.72;;;9.70;58.30;;;;;;5071195;28;20376;-72
2023/12/30 00:15:41;;;;;;;8.45;2.72;;;9.60;59.10;;;;;;5071426;28;20395;-70
2023/12/30 00:18:07;;;;;;;12.27;2.50;;;9.70;58.40;;;;;;5071302;28;20387;-74
2023/12/30 00:20:32;;;;;;;14.63;2.70;;;9.70;58.70;;;;;;5052843;28;20427;-70
2023/12/30 00:22:58;;;;;;;16.93;3.30;;;9.70;58.50;;;;;;5071363;28;20387;-74
2023/12/30 00:25:23;;;;;;;14.43;2.83;;;9.70;58.50;;;;;;5070681;28;20774;-72
2023/12/30 00:27:51;;;;;;;16.07;3.03;;;9.70;58.60;;;;;;5071005;28;20379;-73
2023/12/30 00:30:17;;;;;;;10.25;3.10;;;9.70;58.20;;;;;;5070909;28;20412;-73
2023/12/30 00:32:42;;;;;;;10.13;2.53;;;9.60;59.10;;;;;;5071355;28;20779;-72
2023/12/30 00:35:08;;;;;;;14.57;3.40;;;9.50;59.30;;;;;;5070868;28;20885;-73
2023/12/30 00:37:34;;;;;;;14.93;3.00;;;9.40;60.10;;;;;;5070980;28;20380;-71
2023/12/30 00:40:00;;;;;;;15.10;3.70;;;9.30;60.90;;;;;;5070408;28;20826;-74
2023/12/30 00:42:25;;;;;;;24.80;4.07;;;9.20;62.00;;;;;;5070769;28;20411;-74
2023/12/30 00:44:51;;;;;;;13.85;2.92;;;9.20;61.60;;;;;;5072697;28;20803;-74
2023/12/30 00:47:18;;;;;;;19.00;2.97;;;9.30;61.50;;;;;;5075229;28;20391;-74
2023/12/30 00:49:44;;;;;;;10.45;2.70;;;9.30;61.30;;;;;;5074921;28;20380;-74
2023/12/30 00:52:10;;;;;;;14.07;3.33;;;9.10;62.50;;;;;;5074677;28;20429;-74
2023/12/30 00:54:36;;;;;;;14.87;3.97;;;9.10;63.10;;;;;;5074946;28;20426;-74
2023/12/30 00:57:02;;;;;;;17.35;4.30;;;9.10;62.80;;;;;;5074899;28;20733;-73
2023/12/30 00:59:27;;;;;;;22.50;3.97;;;9.10;62.70;;;;;;5074284;28;20403;-74
2023/12/30 01:01:53;;;;;;;24.90;3.70;;;9.10;63.40;;;;;;5074434;28;20881;-73
2023/12/30 01:04:18;;;;;;;10.97;2.60;;;9.00;63.50;;;;;;5074357;28;20912;-72
2023/12/30 01:06:44;;;;;;;15.50;2.88;;;9.00;62.60;;;;;;5074604;28;20437;-73
2023/12/30 01:09:09;;;;;;;13.02;2.80;;;9.10;62.10;;;;;;5074475;28;20399;-74
2023/12/30 01:11:35;;;;;;;17.80;3.58;;;9.10;62.30;;;;;;5074222;28;20391;-70
2023/12/30 01:14:00;;;;;;;17.90;3.80;;;9.00;63.10;;;;;;5056562;28;20380;-71
2023/12/30 01:16:26;;;;;;;11.10;2.47;;;9.00;62.40;;;;;;5074973;28;20394;-71
2023/12/30 01:18:51;;;;;;;16.27;3.03;;;9.00;62.20;;;;;;5074898;28;20394;-73
2023/12/30 01:21:20;;;;;;;8.00;1.93;;;9.00;61.90;;;;;;5074902;28;20383;-75
2023/12/30 01:23:46;;;;;;;9.15;2.53;;;9.00;61.00;;;;;;5074023;28;20394;-75
2023/12/30 01:26:11;;;;;;;8.93;2.07;;;9.10;60.10;;;;;;5074240;28;20926;-74
2023/12/30 01:28:37;;;;;;;12.00;2.00;;;9.10;60.00;;;;;;5073963;28;20454;-75
2023/12/30 01:31:03;;;;;;;8.27;2.30;;;9.10;60.10;;;;;;5073523;28;20866;-76
2023/12/30 01:33:29;;;;;;;10.88;2.47;;;9.10;60.90;;;;;;5073977;28;20419;-74
2023/12/30 01:35:55;;;;;;;11.90;2.90;;;9.10;61.70;;;;;;5073584;28;20414;-76
2023/12/30 01:38:21;;;;;;;12.18;2.60;;;9.10;62.40;;;;;;5073637;28;20383;-74
2023/12/30 01:40:46;;;;;;;14.13;2.90;;;9.10;62.50;;;;;;5073455;28;20407;-74
2023/12/30 01:43:29;;;;;;;13.80;2.97;;;9.10;63.30;;;;;;5073571;28;20386;-75
2023/12/30 01:45:59;;;;;;;21.05;3.72;;;9.00;64.70;;;;;;5073172;28;20384;-75
2023/12/30 01:48:26;;;;;;;22.15;3.60;;;9.10;64.90;;;;;;5073546;28;20397;-75
2023/12/30 01:50:52;;;;;;;12.50;3.05;;;9.10;65.00;;;;;;5073095;28;20387;-75
2023/12/30 01:53:19;;;;;;;11.88;3.10;;;9.10;64.80;;;;;;5073723;28;20421;-75
2023/12/30 01:55:49;;;;;;;18.70;3.63;;;9.10;64.90;;;;;;5072979;28;20383;-75
2023/12/30 01:58:15;;;;;;;20.40;2.95;;;9.10;65.40;;;;;;5073586;28;20471;-76
2023/12/30 02:00:42;;;;;;;13.75;3.05;;;9.10;65.10;;;;;;5073150;28;20485;-73
2023/12/30 02:03:07;;;;;;;15.07;3.00;;;9.10;64.80;;;;;;5073622;28;20436;-74
2023/12/30 02:05:34;;;;;;;18.70;3.55;;;9.10;64.80;;;;;;5073117;28;20805;-75
2023/12/30 02:08:00;;;;;;;22.60;3.50;;;9.10;65.20;;;;;;5073382;28;20419;-75
2023/12/30 02:10:25;;;;;;;19.75;3.90;;;9.10;64.20;;;;;;5073182;28;20790;-75
2023/12/30 02:12:51;;;;;;;19.55;4.70;;;9.10;64.40;;;;;;5073861;28;20453;-75
2023/12/30 02:15:24;;;;;;;24.60;3.45;;;9.10;63.90;;;;;;5075834;28;20391;-76
2023/12/30 02:17:51;;;;;;;18.75;3.42;;;9.20;62.20;;;;;;5075889;28;20406;-77
2023/12/30 02:20:17;;;;;;;14.80;2.95;;;9.20;62.40;;;;;;5075785;28;20426;-75
2023/12/30 02:22:45;;;;;;;21.33;3.77;;;9.30;61.30;;;;;;5074842;28;20376;-76
2023/12/30 02:25:11;;;;;;;14.50;3.60;;;9.30;61.60;;;;;;5075085;28;20480;-76
2023/12/30 02:27:36;;;;;;;16.17;3.67;;;9.10;62.30;;;;;;5074149;28;20476;-75
2023/12/30 02:30:02;;;;;;;21.53;3.10;;;9.20;61.50;;;;;;5074147;28;20384;-76
2023/12/30 02:32:28;;;;;;;18.80;3.92;;;9.20;61.00;;;;;;5073725;28;20537;-75
2023/12/30 02:34:53;;;;;;;17.00;3.60;;;9.10;61.80;;;;;;5073627;28;20647;-74
2023/12/30 02:37:19;;;;;;;15.57;3.60;;;9.00;62.70;;;;;;5073945;28;20453;-75
2023/12/30 02:39:44;;;;;;;13.50;3.27;;;9.00;63.30;;;;;;5074659;28;20410;-75
2023/12/30 02:42:10;;;;;;;15.77;3.80;;;8.90;63.40;;;;;;5075604;28;20382;-76
2023/12/30 02:44:36;;;;;;;20.33;3.63;;;8.90;63.90;;;;;;5073454;28;20653;-76
2023/12/30 02:47:01;;;;;;;19.53;4.30;;;8.90;64.10;;;;;;5072796;28;20425;-77
2023/12/30 02:49:27;;;;;;;15.73;3.10;;;8.80;64.60;;;;;;5073645;28;20884;-75
2023/12/30 02:51:54;;;;;;;10.07;3.05;;;8.80;64.80;;;;;;5074179;28;20874;-75
2023/12/30 02:54:19;;;;;;;19.30;3.78;;;8.80;64.30;;;;;;5074073;28;20394;-76
2023/12/30 02:56:45;;;;;;;14.67;3.23;;;8.80;64.60;;;;;;5055573;28;20961;-75
2023/12/30 02:59:10;;;;;;;26.30;3.50;;;8.80;65.30;;;;;;5056383;28;20403;-74
2023/12/30 03:01:38;;;;;;;21.50;3.20;;;8.70;65.60;;;;;;5077594;28;20384;-76
2023/12/30 03:04:03;;;;;;;16.85;3.33;;;8.70;66.20;;;;;;5076323;28;20437;-76
2023/12/30 03:06:29;;;;;;;17.13;3.13;;;8.70;65.30;;;;;;5074064;28;20470;-76
2023/12/30 03:08:54;;;;;;;18.42;3.22;;;8.70;64.60;;;;;;5073208;28;20398;-74
2023/12/30 03:11:21;;;;;;;14.45;3.05;;;8.80;64.90;;;;;;5073427;28;20375;-76
2023/12/30 03:13:46;;;;;;;20.80;3.83;;;8.70;65.50;;;;;;5073880;28;20376;-75
2023/12/30 03:16:15;;;;;;;17.30;3.60;;;8.70;66.10;;;;;;5073914;28;20880;-76
2023/12/30 03:18:42;;;;;;;16.63;3.53;;;8.70;65.80;;;;;;5073815;28;20513;-76
2023/12/30 03:21:10;;;;;;;15.85;3.50;;;8.60;67.00;;;;;;5072501;28;20929;-74
2023/12/30 03:23:36;;;;;;;14.73;4.00;;;8.60;67.60;;;;;;5072163;28;20380;-74
2023/12/30 03:26:03;;;;;;;16.75;3.80;;;8.50;68.00;;;;;;5053844;28;20453;-75
2023/12/30 03:28:29;;;;;;;19.45;3.65;;;8.60;68.10;;;;;;5054214;28;20704;-76
2023/12/30 03:30:55;;;;;;;16.13;3.33;;;8.60;68.40;;;;;;5071657;28;20407;-74
2023/12/30 03:33:20;;;;;;;14.10;3.27;;;8.50;68.50;;;;;;5071873;28;20398;-76
2023/12/30 03:35:46;;;;;;;23.50;3.80;;;8.50;68.50;;;;;;5071455;28;20726;-74
2023/12/30 03:38:11;;;;;;;15.33;2.93;;;8.50;68.90;;;;;;5071702;28;20379;-76
2023/12/30 03:40:37;;;;;;;14.73;3.10;;;8.50;68.50;;;;;;5071516;28;20739;-76
2023/12/30 03:43:03;;;;;;;19.80;3.77;;;8.60;67.60;;;;;;5071395;28;20461;-74
2023/12/30 03:45:29;;;;;;;20.07;3.90;;;8.60;67.90;;;;;;5071461;28;20941;-75
2023/12/30 03:47:55;;;;;;;17.90;3.50;;;8.60;67.60;;;;;;5071255;28;20438;-76
2023/12/30 03:50:20;;;;;;;13.23;3.80;;;8.60;67.70;;;;;;5071223;28;20403;-76
2023/12/30 03:52:46;;;;;;;14.00;3.40;;;8.70;67.30;;;;;;5071490;28;20854;-74
2023/12/30 03:55:12;;;;;;;16.53;3.50;;;8.60;67.70;;;;;;5072292;28;20384;-76
2023/12/30 03:57:38;;;;;;;16.90;3.13;;;8.70;67.20;;;;;;5072041;28;20478;-74
2023/12/30 04:00:04;;;;;;;20.87;3.70;;;8.70;66.20;;;;;;5071154;28;20429;-75
2023/12/30 04:02:30;;;;;;;24.73;3.90;;;8.70;66.80;;;;;;5073354;28;20801;-76
2023/12/30 04:04:56;;;;;;;18.83;3.30;;;8.70;66.80;;;;;;5072764;28;20376;-75
2023/12/30 04:07:21;;;;;;;19.33;3.37;;;8.60;67.40;;;;;;5073165;28;20414;-75
2023/12/30 04:09:47;;;;;;;12.40;2.90;;;8.60;68.00;;;;;;5071621;28;20380;-76
2023/12/30 04:12:12;;;;;;;16.50;3.30;;;8.70;67.30;;;;;;5071370;28;20391;-76
2023/12/30 04:14:38;;;;;;;16.47;3.80;;;8.60;66.60;;;;;;5071157;28;20494;-76
2023/12/30 04:17:03;;;;;;;14.40;3.50;;;8.70;66.40;;;;;;5071297;28;20391;-75
2023/12/30 04:19:29;;;;;;;18.50;3.65;;;8.60;67.20;;;;;;5069606;28;20399;-76
2023/12/30 04:21:54;;;;;;;16.30;3.20;;;8.60;66.80;;;;;;5071136;28;20854;-76
2023/12/30 04:24:21;;;;;;;13.37;3.30;;;8.60;66.50;;;;;;5071142;28;20428;-76
2023/12/30 04:26:47;;;;;;;17.30;3.35;;;8.70;65.30;;;;;;5071050;28;20394;-75
2023/12/30 04:29:13;;;;;;;13.90;3.80;;;8.70;64.30;;;;;;5071321;28;20866;-76
2023/12/30 04:31:38;;;;;;;25.67;4.57;;;8.70;64.30;;;;;;5070604;28;20386;-75
2023/12/30 04:34:05;;;;;;;17.70;3.10;;;8.70;63.90;;;;;;5070794;28;20383;-75
2023/12/30 04:36:30;;;;;;;16.75;2.83;;;8.70;63.50;;;;;;5070480;28;20391;-75
2023/12/30 04:38:56;;;;;;;16.43;3.83;;;8.60;64.50;;;;;;5070436;28;20787;-75
2023/12/30 04:41:21;;;;;;;23.05;3.65;;;8.60;64.40;;;;;;5070673;28;20434;-75
2023/12/30 04:43:47;;;;;;;19.95;3.45;;;8.60;64.40;;;;;;5070661;28;20438;-76
2023/12/30 04:46:12;;;;;;;21.65;3.08;;;8.50;65.70;;;;;;5070418;28;20383;-76
2023/12/30 04:48:38;;;;;;;21.00;3.90;;;8.50;66.50;;;;;;5052416;28;20419;-74
2023/12/30 04:51:04;;;;;;;11.82;3.38;;;8.50;67.40;;;;;;5070404;28;20429;-75
2023/12/30 04:53:29;;;;;;;15.02;3.10;;;8.40;68.20;;;;;;5070523;28;20384;-77
2023/12/30 04:55:55;;;;;;;18.13;3.13;;;8.30;68.80;;;;;;5076403;28;20447;-75
2023/12/30 04:58:21;;;;;;;15.93;3.50;;;8.40;69.00;;;;;;5070501;28;20375;-75
2023/12/30 05:00:46;;;;;;;20.38;3.83;;;8.60;67.40;;;;;;5070484;28;20395;-75
2023/12/30 05:03:13;;;;;;;13.75;3.20;;;8.60;67.30;;;;;;5070482;28;20687;-77
2023/12/30 05:05:39;;;;;;;17.00;3.92;;;8.80;66.40;;;;;;5070620;28;20391;-75
2023/12/30 05:08:04;;;;;;;20.13;3.90;;;8.80;65.40;;;;;;5070383;28;20384;-77
2023/12/30 05:10:30;;;;;;;14.65;3.80;;;8.90;64.80;;;;;;5070375;28;20392;-77
2023/12/30 05:12:55;;;;;;;23.15;4.00;;;8.80;66.10;;;;;;5070414;28;20441;-76
2023/12/30 05:15:21;;;;;;;20.27;4.30;;;8.70;66.60;;;;;;5070272;28;20490;-76
2023/12/30 05:17:46;;;;;;;15.77;3.75;;;8.60;67.40;;;;;;5070320;28;20388;-75
2023/12/30 05:20:12;;;;;;;13.90;3.50;;;8.50;69.00;;;;;;5070227;28;20406;-75
2023/12/30 05:22:39;;;;;;;15.70;3.70;;;8.50;69.70;;;;;;5070436;28;20396;-76
2023/12/30 05:25:05;;;;;;;21.48;3.70;;;8.50;69.30;;;;;;5070255;28;20416;-76
2023/12/30 05:27:31;;;;;;;24.73;4.03;;;8.60;69.60;;;;;;5070371;28;20418;-75
2023/12/30 05:29:57;;;;;;;13.40;3.17;;;8.60;69.40;;;;;;5070414;28;20805;-76
2023/12/30 05:32:22;;;;;;;19.13;3.92;;;8.60;68.90;;;;;;5073895;28;20395;-76
2023/12/30 05:34:48;;;;;;;27.70;4.20;;;8.60;69.70;;;;;;5074180;28;20423;-76
2023/12/30 05:37:13;;;;;;;19.17;3.83;;;8.70;69.00;;;;;;5074157;28;20869;-76
2023/12/30 05:39:39;;;;;;;19.90;3.77;;;8.70;68.30;;;;;;5075108;28;20882;-77
2023/12/30 05:42:06;;;;;;;17.15;4.10;;;8.60;69.30;;;;;;5075552;28;20460;-74
2023/12/30 05:44:31;;;;;;;17.85;4.72;;;8.60;69.10;;;;;;5074634;28;20406;-76
2023/12/30 05:46:57;;;;;;;16.03;3.87;;;8.50;69.90;;;;;;5074393;28;20736;-75
2023/12/30 05:49:22;;;;;;;14.53;3.60;;;8.50;70.70;;;;;;5074808;28;20391;-74
2023/12/30 05:51:50;;;;;;;16.07;3.67;;;8.50;70.70;;;;;;5075353;28;20386;-75
2023/12/30 05:54:15;;;;;;;17.80;3.60;;;8.60;70.20;;;;;;5078711;28;20391;-76
2023/12/30 05:56:41;;;;;;;19.80;3.72;;;8.70;69.40;;;;;;5077153;28;20384;-76
2023/12/30 05:59:06;;;;;;;20.83;3.87;;;8.70;69.60;;;;;;5076907;28;20467;-76
2023/12/30 06:01:32;;;;;;;21.98;4.13;;;8.80;68.80;;;;;;5075721;28;20376;-76
2023/12/30 06:03:58;;;;;;;15.63;3.90;;;8.70;68.70;;;;;;5056671;28;20920;-76
2023/12/30 06:06:24;;;;;;;19.75;4.13;;;8.70;69.80;;;;;;5075159;28;20776;-76
2023/12/30 06:08:49;;;;;;;18.30;3.78;;;8.70;68.60;;;;;;5074911;28;20471;-76
2023/12/30 06:11:16;;;;;;;19.90;3.50;;;8.70;68.10;;;;;;5075398;28;20384;-76
2023/12/30 06:13:41;;;;;;;24.10;3.83;;;8.70;68.20;;;;;;5073647;28;20429;-75
2023/12/30 06:16:08;;;;;;;18.75;3.72;;;8.80;67.80;;;;;;5073042;28;20383;-76
2023/12/30 06:18:34;;;;;;;15.48;4.00;;;8.90;66.60;;;;;;5073300;28;20517;-75
2023/12/30 06:21:00;;;;;;;20.75;3.60;;;8.90;66.40;;;;;;5072831;28;20495;-76
2023/12/30 06:23:28;;;;;;;20.02;3.95;;;8.90;66.40;;;;;;5073290;28;20387;-76
2023/12/30 06:25:54;;;;;;;26.10;3.90;;;8.90;66.70;;;;;;5072826;28;20384;-76
2023/12/30 06:28:20;;;;;;;21.90;4.10;;;9.00;64.90;;;;;;5073640;28;20437;-75
2023/12/30 06:30:46;;;;;;;19.93;3.90;;;9.00;64.70;;;;;;5073105;28;20383;-73
2023/12/30 06:33:12;;;;;;;19.40;4.43;;;9.00;64.50;;;;;;5060827;28;20399;-75
2023/12/30 06:35:38;;;;;;;16.17;4.07;;;8.90;64.60;;;;;;5072561;28;20445;-76
2023/12/30 06:38:03;;;;;;;19.30;3.63;;;8.90;65.30;;;;;;5072460;28;20414;-76
2023/12/30 06:40:29;;;;;;;17.00;3.90;;;8.60;67.50;;;;;;5072233;28;20415;-75
2023/12/30 06:42:54;;;;;;;21.67;4.93;;;8.50;69.20;;;;;;5071721;28;20866;-76
2023/12/30 06:45:21;;;;;;;22.35;4.00;;;8.40;69.80;;;;;;5072198;28;20391;-75
2023/12/30 06:47:46;;;;;;;23.63;3.70;;;8.30;70.90;;;;;;5072613;28;20886;-77
2023/12/30 06:50:13;;;;;;;14.45;4.38;;;8.30;71.30;;;;;;5072779;28;20511;-75
2023/12/30 06:52:38;;;;;;;16.05;4.00;;;8.20;72.10;;;;;;5072583;28;20712;-76
2023/12/30 06:55:06;;;;;;;14.53;3.40;;;8.10;72.20;;;;;;5072763;28;20391;-74
2023/12/30 06:57:31;;;;;;;24.85;4.20;;;8.20;73.10;;;;;;5072160;28;20398;-75
2023/12/30 06:59:57;;;;;;;15.40;3.23;;;8.10;73.90;;;;;;5072736;28;20485;-76
2023/12/30 07:02:22;;;;;;;19.38;4.53;;;8.10;73.90;;;;;;5072507;28;20392;-76
2023/12/30 07:04:48;;;;;;;18.45;4.00;;;8.00;75.20;;;;;;5072250;28;20810;-76
2023/12/30 07:07:13;;;;;;;21.35;3.65;;;7.90;75.40;;;;;;5072555;28;20407;-77
2023/12/30 07:09:39;;;;;;;15.90;4.30;;;7.90;76.30;;;;;;5073450;28;20380;-76
2023/12/30 07:12:05;;;;;;;24.00;4.45;;;7.80;77.30;;;;;;5054278;28;20400;-77
2023/12/30 07:14:34;;;;;;;19.50;3.92;;;7.90;77.20;;;;;;5072861;28;20890;-78
2023/12/30 07:17:00;;;;;;;18.73;3.80;;;7.90;76.90;;;;;;5072264;28;20387;-75
2023/12/30 07:19:26;;;;;;;18.38;4.15;;;8.00;75.80;;;;;;5071556;28;20443;-77
2023/12/30 07:21:52;;;;;;;18.75;3.67;;;8.00;75.70;;;;;;5071909;28;20414;-77
2023/12/30 07:24:18;;;;;;;17.70;4.22;;;8.10;74.70;;;;;;5072085;28;20383;-76
2023/12/30 07:26:44;;;;;;;18.80;3.50;;;8.10;75.60;;;;;;5072470;28;20401;-75
2023/12/30 07:29:11;;;;;;;19.90;4.00;;;8.00;74.60;;;;;;5072318;28;20375;-74
2023/12/30 07:31:37;;;;;;;21.73;4.53;;;8.00;74.80;;;;;;5054154;28;20383;-76
2023/12/30 07:34:04;;;;;;;20.90;3.85;;;8.00;75.30;;;;;;5072367;28;20376;-76
2023/12/30 07:36:30;;;;;;;22.73;4.07;;;8.10;75.30;;;;;;5076691;28;20385;-77
2023/12/30 07:38:56;;;;;;;18.77;4.00;;;8.10;74.60;;;;;;5079461;28;20378;-78
2023/12/30 07:41:22;;;;;;;18.48;3.78;;;8.20;74.00;;;;;;5077190;28;20419;-76
2023/12/30 07:43:48;;;;;;;16.60;3.08;;;8.30;71.70;;;;;;5078834;28;20372;-75
2023/12/30 07:46:14;;;;;;;13.30;3.80;;;8.40;71.70;;;;;;5076993;28;20414;-74
2023/12/30 07:48:40;;;;;;;19.17;3.28;;;8.50;70.30;;;;;;5080059;28;20376;-74
2023/12/30 07:51:06;;;;;;;11.98;3.78;;;8.50;70.50;;;;;;5073030;28;20461;-77
2023/12/30 07:53:32;;;;;;;19.17;3.88;;;8.50;69.90;;;;;;5074842;28;20541;-76
2023/12/30 07:55:57;;;;;;;16.55;4.28;;;8.60;68.70;;;;;;5068714;28;20419;-75
2023/12/30 07:58:23;;;;;;;14.20;3.10;;;8.70;68.70;;;;;;5064095;28;20424;-77
2023/12/30 08:00:48;;;;;;;24.67;4.00;;;8.80;67.10;;;;;;5064852;28;20889;-77
2023/12/30 08:03:14;;;;;;;17.33;4.10;;;8.90;65.60;;;;;;5069263;28;20862;-75
2023/12/30 08:05:40;;;;;;;20.67;3.60;;;8.90;66.10;;;;;;5070869;28;20746;-76
2023/12/30 08:08:08;;;;;;;13.07;3.40;;;8.80;66.80;;;;;;5077158;28;20416;-75
2023/12/30 08:10:34;;;;;;;14.00;3.90;;;8.90;66.90;;;;;;5070593;28;20384;-76
2023/12/30 08:13:00;;;;;;;19.15;2.92;;;8.90;66.50;;;;;;5069992;28;20479;-77
2023/12/30 08:15:26;;;;;;;16.50;3.83;;;8.90;65.60;;;;;;5070476;28;20486;-77
2023/12/30 08:17:52;;;;;;;12.85;3.58;;;8.90;65.90;;;;;;5070722;28;20383;-76
2023/12/30 08:20:18;;;;;;;21.07;4.30;;;8.90;66.70;;;;;;5069452;28;20407;-76
2023/12/30 08:22:43;;;;;;;21.87;3.70;;;8.90;66.50;;;;;;5067963;28;20372;-77
2023/12/30 08:25:09;;;;;;;19.63;4.30;;;8.90;66.30;;;;;;5051754;28;20400;-77
2023/12/30 08:27:36;;;;;;;17.95;3.65;;;8.90;66.50;;;;;;5069016;28;20415;-75
2023/12/30 08:30:02;;;;;;;15.60;3.63;;;8.90;66.00;;;;;;5058756;28;20882;-75
2023/12/30 08:32:28;;;;;;;15.15;3.90;;;9.00;65.70;;;;;;5070255;28;20925;-77
2023/12/30 08:34:54;;;;;;;17.07;3.90;;;9.00;66.30;;;;;;5057015;28;20455;-77
2023/12/30 08:37:20;;;;;;;17.67;3.97;;;9.00;65.70;;;;;;5061481;28;20388;-73
2023/12/30 08:39:46;;;;;;;14.73;3.80;;;9.10;65.40;;;;;;5089904;22;20442;-73
2023/12/30 08:42:12;;;;;;;15.23;4.00;;;9.20;64.30;;;;;;5089114;28;20374;-74
2023/12/30 08:44:43;;;;;;;22.53;5.07;;;9.30;63.70;;;;;;5089448;28;20389;-73
2023/12/30 08:47:12;;;;;;;18.63;4.35;;;9.30;63.90;;;;;;5087197;28;20876;-74
2023/12/30 08:49:38;;;;;;;15.93;4.50;;;9.30;63.00;;;;;;5066661;28;20519;-71
2023/12/30 08:52:04;;;;;;;21.80;4.10;;;9.30;63.00;;;;;;5055954;28;20470;-70
2023/12/30 08:54:31;;;;;;;20.70;4.17;;;9.40;62.70;;;;;;5070465;28;20395;-73
2023/12/30 08:56:56;;;;;;;27.83;4.07;;;9.40;63.00;;;;;;5051892;28;20414;-73
2023/12/30 08:59:27;;;;;;;15.45;4.38;;;9.40;62.60;;;;;;5069909;28;20411;-73
2023/12/30 09:01:52;;;;;;;17.52;4.13;;;9.50;61.40;;;;;;5069644;28;20388;-73
2023/12/30 09:04:18;;;;;;;21.55;4.30;;;9.50;61.30;;;;;;5069419;28;20487;-72
2023/12/30 09:06:44;;;;;;;20.30;4.63;;;9.50;61.80;;;;;;5072203;28;20810;-72
2023/12/30 09:09:11;;;;;;;17.90;4.00;;;9.60;61.40;;;;;;5064382;28;20385;-70
2023/12/30 09:11:38;;;;;;;22.15;4.40;;;9.60;61.70;;;;;;5055898;28;20385;-73
2023/12/30 09:14:07;;;;;;;14.82;4.45;;;9.60;60.40;;;;;;5054313;28;20403;-71
2023/12/30 09:16:32;;;;;;;15.98;4.40;;;9.60;60.50;;;;;;5071723;28;20383;-72
2023/12/30 09:18:58;;;;;;;24.23;4.10;;;9.70;60.10;;;;;;5074988;28;20376;-72
2023/12/30 09:21:24;;;;;;;22.48;5.30;;;9.70;59.60;;;;;;5054506;28;20437;-72
2023/12/30 09:23:50;;;;;;;22.08;4.60;;;9.80;59.50;;;;;;5055607;28;20428;-71
2023/12/30 09:26:16;;;;;;;20.80;4.72;;;9.80;59.40;;;;;;5053349;28;20392;-72
2023/12/30 09:28:42;;;;;;;17.60;5.00;;;9.80;59.80;;;;;;5068228;28;20384;-72
2023/12/30 09:31:07;;;;;;;11.98;4.05;;;9.80;59.40;;;;;;5057412;28;20963;-70
2023/12/30 09:33:33;;;;;;;13.18;4.50;;;9.80;58.90;;;;;;5075979;28;20461;-74
2023/12/30 09:35:59;;;;;;;24.90;4.90;;;9.90;59.10;;;;;;5073088;28;20379;-73
2023/12/30 09:38:25;;;;;;;21.55;4.80;;;9.90;58.40;;;;;;5074391;28;20387;-72
2023/12/30 09:40:52;;;;;;;14.05;4.32;;;10.00;58.20;;;;;;5075253;28;20821;-73
2023/12/30 09:43:27;;;;;;;19.17;4.80;;;10.10;57.70;;;;;;5073256;28;20441;-74
2023/12/30 09:45:54;;;;;;;15.60;4.78;;;10.10;56.80;;;;;;5070861;28;20475;-73
2023/12/30 09:48:25;;;;;;;19.38;4.20;;;10.20;56.90;;;;;;5052968;28;20392;-68
2023/12/30 09:50:51;;;;;;;14.27;4.20;;;10.10;56.00;;;;;;5065263;28;21038;-70
2023/12/30 09:53:17;;;;;;;16.95;4.72;;;10.20;56.20;;;;;;5071300;28;20395;-70
2023/12/30 09:55:47;;;;;;;16.75;3.60;;;10.20;55.40;;;;;;5071646;28;20380;-69
2023/12/30 09:58:17;;;;;;;20.80;4.40;;;10.30;54.80;;;;;;5053676;28;20456;-70
2023/12/30 10:00:43;;;;;;;15.35;4.32;;;10.40;54.20;;;;;;5071904;28;20829;-69
2023/12/30 10:03:13;;;;;;;21.00;4.60;;;10.40;54.10;;;;;;5071821;28;20862;-70
2023/12/30 10:05:39;;;;;;;15.85;4.60;;;10.50;52.70;;;;;;5052460;28;20989;-70
2023/12/30 10:08:05;;;;;;;20.73;5.00;;;10.60;53.10;;;;;;5071331;28;20476;-71
2023/12/30 10:10:41;;;;;;;15.70;4.30;;;10.70;51.80;;;;;;5070443;28;20958;-70
2023/12/30 10:13:06;;;;;;;18.65;4.78;;;10.70;52.20;;;;;;5070511;28;20391;-71
2023/12/30 10:15:32;;;;;;;13.50;4.63;;;10.70;51.70;;;;;;5070776;28;20402;-69
2023/12/30 10:17:57;;;;;;;26.37;4.67;;;10.80;51.20;;;;;;5070299;28;20520;-70
2023/12/30 10:20:23;;;;;;;16.33;4.63;;;10.90;50.40;;;;;;5051918;28;20883;-71
2023/12/30 10:22:50;;;;;;;25.80;5.30;;;11.00;49.90;;;;;;5052477;28;20381;-71
2023/12/30 10:25:15;;;;;;;16.80;5.00;;;11.10;49.60;;;;;;5049907;28;20389;-69
2023/12/30 10:27:41;;;;;;;15.93;4.60;;;11.20;49.10;;;;;;5050300;28;20762;-70
2023/12/30 10:30:12;;;;;;;13.82;4.15;;;11.20;48.60;;;;;;5050092;28;20868;-70
2023/12/30 10:32:38;;;;;;;19.98;5.32;;;11.30;48.00;;;;;;5050246;28;20389;-70
2023/12/30 10:35:04;;;;;;;21.45;4.90;;;11.30;47.70;;;;;;5050396;28;20493;-69
2023/12/30 10:37:29;;;;;;;19.45;4.28;;;11.30;47.70;;;;;;5050694;28;20385;-70
2023/12/30 10:39:56;;;;;;;23.75;5.03;;;11.40;48.00;;;;;;5050054;28;20889;-72
2023/12/30 10:42:22;;;;;;;22.77;4.60;;;11.40;47.80;;;;;;5050804;28;20882;-69
2023/12/30 10:44:48;;;;;;;19.63;4.20;;;11.40;47.00;;;;;;5050971;28;20532;-69
2023/12/30 10:47:15;;;;;;;14.40;3.73;;;11.40;46.90;;;;;;5068376;28;20383;-73
2023/12/30 10:49:48;;;;;;;21.75;4.72;;;11.40;46.60;;;;;;5053446;28;21094;-70
2023/12/30 10:52:16;;;;;;;14.30;3.90;;;11.40;47.30;;;;;;5071102;28;20380;-69
2023/12/30 10:54:47;;;;;;;16.90;3.75;;;11.50;46.60;;;;;;5069727;28;20387;-71
2023/12/30 10:57:17;;;;;;;14.00;3.92;;;11.60;46.80;;;;;;5069383;28;20457;-70
2023/12/30 10:59:49;;;;;;;14.23;4.10;;;11.60;46.10;;;;;;5069613;28;20407;-72
2023/12/30 11:02:16;;;;;;;21.20;4.40;;;11.60;46.40;;;;;;5068827;28;20466;-70
2023/12/30 11:04:42;;;;;;;14.73;3.67;;;11.70;46.00;;;;;;5049523;28;20390;-69
2023/12/30 11:07:10;;;;;;;17.83;4.15;;;11.70;45.50;;;;;;5049067;28;20739;-71
2023/12/30 11:09:36;;;;;;;18.55;4.03;;;11.70;45.10;;;;;;5049547;28;20381;-69
2023/12/30 11:12:02;;;;;;;20.98;5.10;;;11.60;45.80;;;;;;5048997;28;20389;-72
2023/12/30 11:14:28;;;;;;;15.38;4.40;;;11.60;46.00;;;;;;5067810;28;20449;-70
2023/12/30 11:16:55;;;;;;;21.70;4.18;;;11.60;46.00;;;;;;5069268;28;20387;-71
2023/12/30 11:19:26;;;;;;;18.63;4.50;;;11.70;45.40;;;;;;5051140;28;20404;-70
2023/12/30 11:21:58;;;;;;;16.35;3.70;;;11.80;45.30;;;;;;5049237;28;20675;-69
2023/12/30 11:24:25;;;;;;;14.27;3.33;;;11.80;45.00;;;;;;5067925;28;20476;-69
2023/12/30 11:26:53;;;;;;;12.85;3.10;;;11.90;44.40;;;;;;5060157;28;20479;-71
2023/12/30 11:29:24;;;;;;;19.02;4.20;;;11.80;44.70;;;;;;5053139;28;21016;-70
2023/12/30 11:31:51;;;;;;;21.40;3.90;;;11.90;44.70;;;;;;5049050;28;20388;-69
2023/12/30 11:34:17;;;;;;;15.48;3.83;;;11.90;43.90;;;;;;5048867;28;20389;-72
2023/12/30 11:36:45;;;;;;;11.40;3.20;;;12.00;44.00;;;;;;5031014;28;20412;-70
2023/12/30 11:39:33;;;;;;;16.00;4.57;;;12.00;43.70;;;;;;5048633;28;20374;-72
2023/12/30 11:42:03;;;;;;;17.63;3.47;;;12.00;43.70;;;;;;5048330;28;21573;-70
2023/12/30 11:44:29;;;;;;;14.48;3.05;;;12.10;43.30;;;;;;5050118;28;20834;-70
2023/12/30 11:46:54;;;;;;;20.50;3.40;;;12.00;42.70;;;;;;5048874;28;20444;-71
2023/12/30 11:49:24;;;;;;;21.42;3.90;;;12.00;43.20;;;;;;5065523;28;20427;-72
2023/12/30 11:51:50;;;;;;;22.55;4.15;;;12.10;43.30;;;;;;5068630;28;20392;-69
2023/12/30 11:54:16;;;;;;;17.30;3.72;;;12.20;42.50;;;;;;5068330;28;20395;-70
2023/12/30 11:56:42;;;;;;;14.90;3.40;;;12.30;42.00;;;;;;5050031;28;20387;-71
2023/12/30 11:59:08;;;;;;;17.20;3.80;;;12.20;42.20;;;;;;5068242;28;20400;-69
2023/12/30 12:01:34;;;;;;;19.45;4.00;;;12.10;42.20;;;;;;5068352;28;20453;-70
2023/12/30 12:04:00;;;;;;;9.57;3.13;;;12.20;42.40;;;;;;5068655;28;20710;-71
2023/12/30 12:06:26;;;;;;;20.40;3.93;;;12.20;42.60;;;;;;5068247;28;20773;-69
2023/12/30 12:08:51;;;;;;;16.20;4.20;;;12.30;42.90;;;;;;5068142;28;20388;-71
2023/12/30 12:11:17;;;;;;;16.83;4.37;;;12.30;43.00;;;;;;5049723;28;20396;-68
2023/12/30 12:13:42;;;;;;;16.27;4.30;;;12.40;41.70;;;;;;5047951;28;20480;-72
2023/12/30 12:16:08;;;;;;;17.60;4.43;;;12.50;42.40;;;;;;5048075;28;20405;-69
2023/12/30 12:18:34;;;;;;;12.80;4.15;;;12.60;41.00;;;;;;5048895;28;20388;-72
2023/12/30 12:21:03;;;;;;;18.42;3.70;;;12.70;40.30;;;;;;5048528;28;20998;-71
2023/12/30 12:23:29;;;;;;;14.40;3.97;;;12.50;40.90;;;;;;5046524;28;20388;-71
2023/12/30 12:25:54;;;;;;;14.13;4.07;;;12.30;41.50;;;;;;5048344;28;20443;-70
2023/12/30 12:28:22;;;;;;;15.87;4.40;;;12.20;41.50;;;;;;5048123;28;20397;-69
2023/12/30 12:30:48;;;;;;;12.93;3.78;;;12.30;41.60;;;;;;5048303;28;20438;-70
2023/12/30 12:33:13;;;;;;;18.90;4.25;;;12.30;41.70;;;;;;5048029;28;20615;-70
2023/12/30 12:35:39;;;;;;;16.70;3.90;;;12.20;41.10;;;;;;5063949;28;20400;-70
2023/12/30 12:38:05;;;;;;;14.23;3.20;;;12.20;41.70;;;;;;5067548;28;20387;-71
2023/12/30 12:40:32;;;;;;;15.05;4.20;;;12.20;41.50;;;;;;5062001;28;20889;-73